sensor_id;sensor_type;location;lat;lon;timestamp;pressure;altitude;pressure_sealevel;temperature;humidity
41230;BME280;26964;50.428;19.218;2023-01-28T00:00:19;1023.4;;;-1.8;77.3
41230;BME280;26964;50.428;19.218;2023-01-28T00:05:19;1023.3;;;-1.8;77.3
41230;BME280;26964;50.428;19.218;2023-01-28T00:10:20;1023.5;;;-1.8;77.3
41230;BME280;26964;50.428;19.218;2023-01-28T00:15:20;1023.5;;;-1.9;77.3
41230;BME280;26964;50.428;19.218;2023-01-28T00:20:19;1023.5;;;-1.9;77.4
41230;BME280;26964;50.428;19.218;2023-01-28T00:25:20;1023.5;;;-1.9;77.4
41230;BME280;26964;50.428;19.218;2023-01-28T00:30:19;1023.5;;;-1.9;77.3
41230;BME280;26964;50.428;19.218;2023-01-28T00:35:20;1023.4;;;-1.9;77.4
41230;BME280;26964;50.428;19.218;2023-01-28T00:40:19;1023.5;;;-1.9;77.3
41230;BME280;26964;50.428;19.218;2023-01-28T00:45:20;1023.5;;;-1.9;77.4
41230;BME280;26964;50.428;19.218;2023-01-28T00:50:19;1023.6;;;-1.9;77.4
41230;BME280;26964;50.428;19.218;2023-01-28T00:55:19;1023.6;;;-1.9;77.3
41230;BME280;26964;50.428;19.218;2023-01-28T01:00:19;1023.5;;;-1.9;77.2
41230;BME280;26964;50.428;19.218;2023-01-28T01:05:19;1023.5;;;-2.0;77.4
41230;BME280;26964;50.428;19.218;2023-01-28T01:10:19;1023.5;;;-2.0;77.4
41230;BME280;26964;50.428;19.218;2023-01-28T01:15:19;1023.6;;;-2.0;77.3
41230;BME280;26964;50.428;19.218;2023-01-28T01:20:24;1023.6;;;-2.0;77.0
41230;BME280;26964;50.428;19.218;2023-01-28T01:25:22;1023.7;;;-2.1;77.0
41230;BME280;26964;50.428;19.218;2023-01-28T01:30:22;1023.7;;;-2.1;77.1
41230;BME280;26964;50.428;19.218;2023-01-28T01:35:23;1023.7;;;-2.1;77.1
41230;BME280;26964;50.428;19.218;2023-01-28T01:40:23;1023.7;;;-2.1;77.1
41230;BME280;26964;50.428;19.218;2023-01-28T01:45:22;1023.7;;;-2.1;77.0
41230;BME280;26964;50.428;19.218;2023-01-28T01:50:25;1023.8;;;-2.1;77.1
41230;BME280;26964;50.428;19.218;2023-01-28T01:55:25;1023.9;;;-2.1;76.9
41230;BME280;26964;50.428;19.218;2023-01-28T02:00:23;1023.8;;;-2.1;77.0
41230;BME280;26964;50.428;19.218;2023-01-28T02:05:24;1023.9;;;-2.2;76.9
41230;BME280;26964;50.428;19.218;2023-01-28T02:10:23;1023.7;;;-2.2;77.1
41230;BME280;26964;50.428;19.218;2023-01-28T02:15:24;1023.7;;;-2.2;77.1
41230;BME280;26964;50.428;19.218;2023-01-28T02:20:31;1023.8;;;-2.2;77.1
41230;BME280;26964;50.428;19.218;2023-01-28T02:30:27;1023.8;;;-2.2;77.1
41230;BME280;26964;50.428;19.218;2023-01-28T02:35:28;1023.9;;;-2.2;77.1
41230;BME280;26964;50.428;19.218;2023-01-28T02:40:27;1023.9;;;-2.2;77.1
41230;BME280;26964;50.428;19.218;2023-01-28T02:45:24;1023.8;;;-2.2;77.1
41230;BME280;26964;50.428;19.218;2023-01-28T02:50:25;1024.0;;;-2.2;77.1
41230;BME280;26964;50.428;19.218;2023-01-28T02:55:28;1024.0;;;-2.2;77.2
41230;BME280;26964;50.428;19.218;2023-01-28T03:00:26;1024.0;;;-2.2;77.1
41230;BME280;26964;50.428;19.218;2023-01-28T03:05:27;1024.0;;;-2.1;77.1
41230;BME280;26964;50.428;19.218;2023-01-28T03:10:26;1023.9;;;-2.2;77.1
41230;BME280;26964;50.428;19.218;2023-01-28T03:15:24;1024.1;;;-2.1;77.1
41230;BME280;26964;50.428;19.218;2023-01-28T03:20:24;1024.0;;;-2.1;77.2
41230;BME280;26964;50.428;19.218;2023-01-28T03:25:26;1024.0;;;-2.2;77.0
41230;BME280;26964;50.428;19.218;2023-01-28T03:30:26;1024.0;;;-2.2;77.0
41230;BME280;26964;50.428;19.218;2023-01-28T03:35:23;1024.0;;;-2.2;77.0
41230;BME280;26964;50.428;19.218;2023-01-28T03:40:24;1024.1;;;-2.2;77.0
41230;BME280;26964;50.428;19.218;2023-01-28T03:45:22;1024.1;;;-2.2;76.9
41230;BME280;26964;50.428;19.218;2023-01-28T03:50:22;1023.8;;;-2.2;76.8
41230;BME280;26964;50.428;19.218;2023-01-28T03:55:23;1023.9;;;-2.2;76.8
41230;BME280;26964;50.428;19.218;2023-01-28T04:00:22;1023.9;;;-2.2;76.9
41230;BME280;26964;50.428;19.218;2023-01-28T04:05:22;1023.9;;;-2.2;76.8
41230;BME280;26964;50.428;19.218;2023-01-28T04:10:23;1023.8;;;-2.2;76.9
41230;BME280;26964;50.428;19.218;2023-01-28T04:15:22;1023.9;;;-2.2;76.8
41230;BME280;26964;50.428;19.218;2023-01-28T04:20:23;1023.9;;;-2.2;76.9
41230;BME280;26964;50.428;19.218;2023-01-28T04:25:23;1024.0;;;-2.1;76.8
41230;BME280;26964;50.428;19.218;2023-01-28T04:30:22;1023.9;;;-2.1;76.9
41230;BME280;26964;50.428;19.218;2023-01-28T04:35:22;1023.9;;;-2.1;76.9
41230;BME280;26964;50.428;19.218;2023-01-28T04:40:23;1023.9;;;-2.1;76.8
41230;BME280;26964;50.428;19.218;2023-01-28T04:45:22;1023.9;;;-2.1;76.9
41230;BME280;26964;50.428;19.218;2023-01-28T04:50:23;1024.0;;;-2.1;76.9
41230;BME280;26964;50.428;19.218;2023-01-28T04:55:22;1023.9;;;-2.2;76.8
41230;BME280;26964;50.428;19.218;2023-01-28T05:00:23;1024.0;;;-2.1;76.9
41230;BME280;26964;50.428;19.218;2023-01-28T05:05:22;1023.9;;;-2.2;76.8
41230;BME280;26964;50.428;19.218;2023-01-28T05:10:23;1024.0;;;-2.2;76.8
41230;BME280;26964;50.428;19.218;2023-01-28T05:15:23;1023.9;;;-2.2;76.8
41230;BME280;26964;50.428;19.218;2023-01-28T05:20:22;1024.1;;;-2.2;76.8
41230;BME280;26964;50.428;19.218;2023-01-28T05:25:23;1024.2;;;-2.2;76.9
41230;BME280;26964;50.428;19.218;2023-01-28T05:30:23;1024.2;;;-2.2;76.8
41230;BME280;26964;50.428;19.218;2023-01-28T05:35:22;1024.3;;;-2.3;76.8
41230;BME280;26964;50.428;19.218;2023-01-28T05:40:22;1024.4;;;-2.3;76.8
41230;BME280;26964;50.428;19.218;2023-01-28T05:45:23;1024.3;;;-2.3;76.8
41230;BME280;26964;50.428;19.218;2023-01-28T05:50:23;1024.4;;;-2.3;76.8
41230;BME280;26964;50.428;19.218;2023-01-28T05:55:22;1024.5;;;-2.3;76.8
41230;BME280;26964;50.428;19.218;2023-01-28T06:00:22;1024.6;;;-2.3;76.8
41230;BME280;26964;50.428;19.218;2023-01-28T06:05:23;1024.7;;;-2.3;76.8
41230;BME280;26964;50.428;19.218;2023-01-28T06:10:22;1024.7;;;-2.3;76.8
41230;BME280;26964;50.428;19.218;2023-01-28T06:15:22;1024.8;;;-2.3;76.7
41230;BME280;26964;50.428;19.218;2023-01-28T06:20:22;1024.8;;;-2.4;76.7
41230;BME280;26964;50.428;19.218;2023-01-28T06:25:22;1024.9;;;-2.4;76.8
41230;BME280;26964;50.428;19.218;2023-01-28T06:30:23;1024.9;;;-2.4;76.8
41230;BME280;26964;50.428;19.218;2023-01-28T06:35:23;1024.9;;;-2.4;76.9
41230;BME280;26964;50.428;19.218;2023-01-28T06:40:22;1024.9;;;-2.4;76.6
41230;BME280;26964;50.428;19.218;2023-01-28T06:45:22;1025.0;;;-2.5;76.5
41230;BME280;26964;50.428;19.218;2023-01-28T06:50:22;1024.9;;;-2.5;76.6
41230;BME280;26964;50.428;19.218;2023-01-28T06:55:22;1025.0;;;-2.5;76.7
41230;BME280;26964;50.428;19.218;2023-01-28T07:00:22;1025.1;;;-2.5;76.7
41230;BME280;26964;50.428;19.218;2023-01-28T07:05:22;1025.1;;;-2.5;76.7
41230;BME280;26964;50.428;19.218;2023-01-28T07:10:22;1025.1;;;-2.5;76.7
41230;BME280;26964;50.428;19.218;2023-01-28T07:15:22;1025.1;;;-2.5;76.8
41230;BME280;26964;50.428;19.218;2023-01-28T07:20:22;1025.2;;;-2.5;76.8
41230;BME280;26964;50.428;19.218;2023-01-28T07:25:22;1025.3;;;-2.4;76.9
41230;BME280;26964;50.428;19.218;2023-01-28T07:30:23;1025.4;;;-2.4;76.7
41230;BME280;26964;50.428;19.218;2023-01-28T07:40:33;1025.4;;;-2.3;76.8
41230;BME280;26964;50.428;19.218;2023-01-28T07:45:33;1025.5;;;-2.3;76.4
41230;BME280;26964;50.428;19.218;2023-01-28T07:50:35;1025.4;;;-2.3;76.5
41230;BME280;26964;50.428;19.218;2023-01-28T07:55:33;1025.5;;;-2.2;76.5
41230;BME280;26964;50.428;19.218;2023-01-28T08:00:35;1025.6;;;-2.2;76.6
41230;BME280;26964;50.428;19.218;2023-01-28T08:05:37;1025.7;;;-2.1;76.4
41230;BME280;26964;50.428;19.218;2023-01-28T08:10:33;1025.6;;;-2.0;76.5
41230;BME280;26964;50.428;19.218;2023-01-28T08:15:33;1025.6;;;-2.0;76.3
41230;BME280;26964;50.428;19.218;2023-01-28T08:20:33;1025.6;;;-2.0;76.0
41230;BME280;26964;50.428;19.218;2023-01-28T08:25:33;1025.7;;;-1.9;76.4
41230;BME280;26964;50.428;19.218;2023-01-28T08:30:34;1025.7;;;-1.9;76.4
41230;BME280;26964;50.428;19.218;2023-01-28T08:35:34;1025.7;;;-1.8;75.9
41230;BME280;26964;50.428;19.218;2023-01-28T08:40:33;1025.7;;;-1.8;75.9
41230;BME280;26964;50.428;19.218;2023-01-28T08:45:33;1025.7;;;-1.8;75.8
41230;BME280;26964;50.428;19.218;2023-01-28T08:50:34;1025.7;;;-1.8;76.0
41230;BME280;26964;50.428;19.218;2023-01-28T08:55:33;1025.7;;;-1.8;75.8
41230;BME280;26964;50.428;19.218;2023-01-28T09:00:34;1025.8;;;-1.8;75.8
41230;BME280;26964;50.428;19.218;2023-01-28T09:05:33;1025.8;;;-1.7;75.9
41230;BME280;26964;50.428;19.218;2023-01-28T09:10:53;1025.9;;;-1.7;75.9
41230;BME280;26964;50.428;19.218;2023-01-28T09:15:33;1025.9;;;-1.7;76.0
41230;BME280;26964;50.428;19.218;2023-01-28T09:20:33;1025.9;;;-1.7;75.8
41230;BME280;26964;50.428;19.218;2023-01-28T09:25:32;1026.0;;;-1.7;76.0
41230;BME280;26964;50.428;19.218;2023-01-28T09:30:33;1026.0;;;-1.7;76.0
41230;BME280;26964;50.428;19.218;2023-01-28T09:35:34;1026.1;;;-1.6;76.1
41230;BME280;26964;50.428;19.218;2023-01-28T09:40:35;1026.1;;;-1.6;76.1
41230;BME280;26964;50.428;19.218;2023-01-28T09:45:37;1026.0;;;-1.6;76.0
41230;BME280;26964;50.428;19.218;2023-01-28T09:50:35;1026.1;;;-1.5;76.1
41230;BME280;26964;50.428;19.218;2023-01-28T09:55:35;1025.9;;;-1.5;76.1
41230;BME280;26964;50.428;19.218;2023-01-28T10:00:37;1025.8;;;-1.5;76.1
41230;BME280;26964;50.428;19.218;2023-01-28T10:05:39;1025.8;;;-1.4;76.0
41230;BME280;26964;50.428;19.218;2023-01-28T10:10:39;1025.8;;;-1.3;76.1
41230;BME280;26964;50.428;19.218;2023-01-28T10:20:42;1025.8;;;-1.3;75.9
41230;BME280;26964;50.428;19.218;2023-01-28T10:25:40;1025.8;;;-1.3;75.9
41230;BME280;26964;50.428;19.218;2023-01-28T10:30:38;1025.8;;;-1.3;75.9
41230;BME280;26964;50.428;19.218;2023-01-28T10:35:38;1025.8;;;-1.3;76.1
41230;BME280;26964;50.428;19.218;2023-01-28T10:40:33;1025.7;;;-1.3;75.9
41230;BME280;26964;50.428;19.218;2023-01-28T10:50:33;1025.8;;;-1.3;76.0
41230;BME280;26964;50.428;19.218;2023-01-28T10:55:35;1025.8;;;-1.3;76.1
41230;BME280;26964;50.428;19.218;2023-01-28T11:00:36;1025.7;;;-1.3;76.0
41230;BME280;26964;50.428;19.218;2023-01-28T11:05:33;1025.8;;;-1.2;76.2
41230;BME280;26964;50.428;19.218;2023-01-28T11:10:34;1025.8;;;-1.2;76.1
41230;BME280;26964;50.428;19.218;2023-01-28T11:15:32;1025.7;;;-1.2;76.1
41230;BME280;26964;50.428;19.218;2023-01-28T11:20:37;1025.7;;;-1.2;76.1
41230;BME280;26964;50.428;19.218;2023-01-28T11:25:35;1025.8;;;-1.2;76.0
41230;BME280;26964;50.428;19.218;2023-01-28T11:30:34;1025.7;;;-1.1;76.1
41230;BME280;26964;50.428;19.218;2023-01-28T11:35:34;1025.7;;;-1.1;76.2
41230;BME280;26964;50.428;19.218;2023-01-28T11:40:33;1025.6;;;-1.1;76.0
41230;BME280;26964;50.428;19.218;2023-01-28T11:45:38;1025.6;;;-1.1;76.1
41230;BME280;26964;50.428;19.218;2023-01-28T11:55:38;1025.7;;;-1.0;76.1
41230;BME280;26964;50.428;19.218;2023-01-28T12:00:37;1025.6;;;-1.0;76.1
41230;BME280;26964;50.428;19.218;2023-01-28T12:10:40;1025.5;;;-1.0;76.1
41230;BME280;26964;50.428;19.218;2023-01-28T12:20:36;1025.5;;;-1.0;76.1
41230;BME280;26964;50.428;19.218;2023-01-28T12:35:41;1025.5;;;-0.9;76.1
41230;BME280;26964;50.428;19.218;2023-01-28T12:45:37;1025.6;;;-0.9;76.1
41230;BME280;26964;50.428;19.218;2023-01-28T12:50:36;1025.6;;;-0.9;76.1
41230;BME280;26964;50.428;19.218;2023-01-28T12:55:37;1025.6;;;-0.9;76.1
41230;BME280;26964;50.428;19.218;2023-01-28T13:00:33;1025.6;;;-0.8;76.1
41230;BME280;26964;50.428;19.218;2023-01-28T13:05:37;1025.6;;;-0.8;76.2
41230;BME280;26964;50.428;19.218;2023-01-28T13:10:37;1025.7;;;-0.8;76.2
41230;BME280;26964;50.428;19.218;2023-01-28T13:15:36;1025.7;;;-0.8;76.2
41230;BME280;26964;50.428;19.218;2023-01-28T13:20:35;1025.8;;;-0.7;76.2
41230;BME280;26964;50.428;19.218;2023-01-28T13:25:33;1025.6;;;-0.7;76.1
41230;BME280;26964;50.428;19.218;2023-01-28T13:30:34;1025.7;;;-0.7;76.0
41230;BME280;26964;50.428;19.218;2023-01-28T13:35:35;1025.8;;;-0.7;76.1
41230;BME280;26964;50.428;19.218;2023-01-28T13:40:32;1025.9;;;-0.7;76.1
41230;BME280;26964;50.428;19.218;2023-01-28T13:45:33;1025.9;;;-0.7;76.1
41230;BME280;26964;50.428;19.218;2023-01-28T13:50:38;1025.9;;;-0.8;76.0
41230;BME280;26964;50.428;19.218;2023-01-28T13:55:37;1025.9;;;-0.8;76.0
41230;BME280;26964;50.428;19.218;2023-01-28T14:00:38;1025.8;;;-0.8;76.1
41230;BME280;26964;50.428;19.218;2023-01-28T14:20:34;1025.9;;;-0.8;76.2
41230;BME280;26964;50.428;19.218;2023-01-28T14:25:38;1025.9;;;-0.8;76.2
41230;BME280;26964;50.428;19.218;2023-01-28T14:30:38;1025.9;;;-0.9;76.2
41230;BME280;26964;50.428;19.218;2023-01-28T14:35:33;1026.0;;;-0.9;76.2
41230;BME280;26964;50.428;19.218;2023-01-28T14:40:32;1026.1;;;-0.9;76.1
41230;BME280;26964;50.428;19.218;2023-01-28T14:45:40;1026.1;;;-1.0;76.2
41230;BME280;26964;50.428;19.218;2023-01-28T14:55:38;1026.2;;;-1.0;76.3
41230;BME280;26964;50.428;19.218;2023-01-28T15:00:33;1026.2;;;-1.0;76.4
41230;BME280;26964;50.428;19.218;2023-01-28T15:05:32;1026.3;;;-1.0;76.4
41230;BME280;26964;50.428;19.218;2023-01-28T15:15:40;1026.3;;;-1.0;76.4
41230;BME280;26964;50.428;19.218;2023-01-28T15:20:43;1026.3;;;-1.1;76.3
41230;BME280;26964;50.428;19.218;2023-01-28T15:25:39;1026.4;;;-1.1;76.5
41230;BME280;26964;50.428;19.218;2023-01-28T15:30:44;1026.4;;;-1.1;76.5
41230;BME280;26964;50.428;19.218;2023-01-28T15:45:47;1026.6;;;-1.2;76.5
41230;BME280;26964;50.428;19.218;2023-01-28T15:51:06;1026.7;;;-1.2;76.6
41230;BME280;26964;50.428;19.218;2023-01-28T15:55:43;1026.8;;;-1.2;76.7
41230;BME280;26964;50.428;19.218;2023-01-28T16:00:41;1026.8;;;-1.2;76.7
41230;BME280;26964;50.428;19.218;2023-01-28T16:15:45;1026.8;;;-1.2;76.9
41230;BME280;26964;50.428;19.218;2023-01-28T16:20:46;1026.8;;;-1.3;77.0
41230;BME280;26964;50.428;19.218;2023-01-28T16:30:43;1026.8;;;-1.3;77.1
41230;BME280;26964;50.428;19.218;2023-01-28T16:45:47;1026.8;;;-1.3;77.2
41230;BME280;26964;50.428;19.218;2023-01-28T16:50:42;1026.9;;;-1.3;77.3
41230;BME280;26964;50.428;19.218;2023-01-28T16:55:49;1026.9;;;-1.3;77.3
41230;BME280;26964;50.428;19.218;2023-01-28T17:01:11;1026.9;;;-1.3;77.4
41230;BME280;26964;50.428;19.218;2023-01-28T17:10:53;1026.9;;;-1.3;77.4
41230;BME280;26964;50.428;19.218;2023-01-28T17:15:52;1026.9;;;-1.2;77.5
41230;BME280;26964;50.428;19.218;2023-01-28T17:26:10;1027.0;;;-1.2;77.6
41230;BME280;26964;50.428;19.218;2023-01-28T17:30:57;1027.0;;;-1.2;77.6
41230;BME280;26964;50.428;19.218;2023-01-28T17:35:57;1027.0;;;-1.2;77.7
41230;BME280;26964;50.428;19.218;2023-01-28T17:41:09;1027.0;;;-1.2;77.7
41230;BME280;26964;50.428;19.218;2023-01-28T17:50:57;1027.1;;;-1.2;77.7
41230;BME280;26964;50.428;19.218;2023-01-28T17:55:58;1027.2;;;-1.2;77.8
41230;BME280;26964;50.428;19.218;2023-01-28T18:01:09;1027.2;;;-1.2;77.8
41230;BME280;26964;50.428;19.218;2023-01-28T18:16:20;1027.2;;;-1.2;78.0
41230;BME280;26964;50.428;19.218;2023-01-28T18:26:10;1027.3;;;-1.1;78.1
41230;BME280;26964;50.428;19.218;2023-01-28T18:31:09;1027.3;;;-1.1;78.2
41230;BME280;26964;50.428;19.218;2023-01-28T18:36:12;1027.2;;;-1.1;78.2
41230;BME280;26964;50.428;19.218;2023-01-28T18:41:09;1027.4;;;-1.0;78.2
41230;BME280;26964;50.428;19.218;2023-01-28T18:46:10;1027.3;;;-1.0;78.3
41230;BME280;26964;50.428;19.218;2023-01-28T18:51:11;1027.5;;;-1.0;78.3
41230;BME280;26964;50.428;19.218;2023-01-28T18:56:15;1027.4;;;-1.1;78.3
41230;BME280;26964;50.428;19.218;2023-01-28T19:01:09;1027.4;;;-1.1;78.3
41230;BME280;26964;50.428;19.218;2023-01-28T19:06:15;1027.4;;;-1.2;78.4
41230;BME280;26964;50.428;19.218;2023-01-28T19:11:32;1027.5;;;-1.2;78.5
41230;BME280;26964;50.428;19.218;2023-01-28T19:16:09;1027.5;;;-1.2;78.5
41230;BME280;26964;50.428;19.218;2023-01-28T19:21:11;1027.5;;;-1.3;78.5
41230;BME280;26964;50.428;19.218;2023-01-28T19:26:09;1027.6;;;-1.3;78.6
41230;BME280;26964;50.428;19.218;2023-01-28T19:31:12;1027.6;;;-1.4;78.6
41230;BME280;26964;50.428;19.218;2023-01-28T19:36:13;1027.5;;;-1.4;78.6
41230;BME280;26964;50.428;19.218;2023-01-28T19:41:16;1027.6;;;-1.5;78.7
41230;BME280;26964;50.428;19.218;2023-01-28T19:46:20;1027.7;;;-1.5;78.7
41230;BME280;26964;50.428;19.218;2023-01-28T19:51:10;1027.7;;;-1.5;78.8
41230;BME280;26964;50.428;19.218;2023-01-28T19:56:11;1027.8;;;-1.6;78.8
41230;BME280;26964;50.428;19.218;2023-01-28T20:01:11;1027.8;;;-1.6;78.8
41230;BME280;26964;50.428;19.218;2023-01-28T20:06:20;1027.8;;;-1.6;78.9
41230;BME280;26964;50.428;19.218;2023-01-28T20:11:11;1027.9;;;-1.6;78.9
41230;BME280;26964;50.428;19.218;2023-01-28T20:16:14;1027.9;;;-1.6;78.9
41230;BME280;26964;50.428;19.218;2023-01-28T20:21:10;1027.8;;;-1.6;79.0
41230;BME280;26964;50.428;19.218;2023-01-28T20:26:09;1027.8;;;-1.6;79.0
41230;BME280;26964;50.428;19.218;2023-01-28T20:31:09;1027.9;;;-1.6;79.0
41230;BME280;26964;50.428;19.218;2023-01-28T20:36:11;1027.9;;;-1.6;79.1
41230;BME280;26964;50.428;19.218;2023-01-28T20:41:11;1027.9;;;-1.7;79.1
41230;BME280;26964;50.428;19.218;2023-01-28T20:46:11;1027.9;;;-1.7;79.1
41230;BME280;26964;50.428;19.218;2023-01-28T20:51:14;1028.1;;;-1.7;79.1
41230;BME280;26964;50.428;19.218;2023-01-28T20:56:11;1028.1;;;-1.7;79.1
41230;BME280;26964;50.428;19.218;2023-01-28T21:01:15;1028.1;;;-1.7;79.1
41230;BME280;26964;50.428;19.218;2023-01-28T21:06:10;1028.1;;;-1.7;79.2
41230;BME280;26964;50.428;19.218;2023-01-28T21:11:10;1028.1;;;-1.8;79.1
41230;BME280;26964;50.428;19.218;2023-01-28T21:16:10;1028.2;;;-1.8;79.2
41230;BME280;26964;50.428;19.218;2023-01-28T21:21:15;1028.2;;;-1.8;79.2
41230;BME280;26964;50.428;19.218;2023-01-28T21:26:11;1028.2;;;-1.8;79.0
41230;BME280;26964;50.428;19.218;2023-01-28T21:31:14;1028.4;;;-1.8;79.0
41230;BME280;26964;50.428;19.218;2023-01-28T21:36:10;1028.5;;;-1.9;79.1
41230;BME280;26964;50.428;19.218;2023-01-28T21:41:09;1028.4;;;-1.9;79.1
41230;BME280;26964;50.428;19.218;2023-01-28T21:46:10;1028.4;;;-1.9;79.1
41230;BME280;26964;50.428;19.218;2023-01-28T21:51:09;1028.4;;;-1.9;79.2
41230;BME280;26964;50.428;19.218;2023-01-28T21:56:09;1028.5;;;-1.9;79.2
41230;BME280;26964;50.428;19.218;2023-01-28T22:01:09;1028.4;;;-1.9;79.2
41230;BME280;26964;50.428;19.218;2023-01-28T22:06:09;1028.4;;;-1.9;79.0
41230;BME280;26964;50.428;19.218;2023-01-28T22:11:09;1028.3;;;-2.0;78.9
41230;BME280;26964;50.428;19.218;2023-01-28T22:16:10;1028.3;;;-2.0;78.9
41230;BME280;26964;50.428;19.218;2023-01-28T22:21:10;1028.5;;;-2.0;78.9
41230;BME280;26964;50.428;19.218;2023-01-28T22:26:09;1028.5;;;-2.1;79.0
41230;BME280;26964;50.428;19.218;2023-01-28T22:31:10;1028.6;;;-2.1;79.0
41230;BME280;26964;50.428;19.218;2023-01-28T22:36:12;1028.6;;;-2.1;79.1
41230;BME280;26964;50.428;19.218;2023-01-28T22:41:10;1028.6;;;-2.1;79.1
41230;BME280;26964;50.428;19.218;2023-01-28T22:46:09;1028.6;;;-2.1;79.2
41230;BME280;26964;50.428;19.218;2023-01-28T22:51:14;1028.6;;;-2.2;79.1
41230;BME280;26964;50.428;19.218;2023-01-28T22:56:09;1028.5;;;-2.2;79.3
41230;BME280;26964;50.428;19.218;2023-01-28T23:01:09;1028.5;;;-2.2;79.2
41230;BME280;26964;50.428;19.218;2023-01-28T23:06:08;1028.5;;;-2.3;79.3
41230;BME280;26964;50.428;19.218;2023-01-28T23:11:09;1028.5;;;-2.3;79.3
41230;BME280;26964;50.428;19.218;2023-01-28T23:16:10;1028.4;;;-2.4;79.2
41230;BME280;26964;50.428;19.218;2023-01-28T23:21:13;1028.3;;;-2.4;79.3
41230;BME280;26964;50.428;19.218;2023-01-28T23:26:10;1028.3;;;-2.4;79.2
41230;BME280;26964;50.428;19.218;2023-01-28T23:31:09;1028.1;;;-2.5;79.2
41230;BME280;26964;50.428;19.218;2023-01-28T23:36:11;1028.2;;;-2.5;79.1
41230;BME280;26964;50.428;19.218;2023-01-28T23:41:09;1028.2;;;-2.5;79.1
41230;BME280;26964;50.428;19.218;2023-01-28T23:46:09;1028.1;;;-2.5;79.2
41230;BME280;26964;50.428;19.218;2023-01-28T23:51:10;1028.2;;;-2.5;79.2
41230;BME280;26964;50.428;19.218;2023-01-28T23:56:09;1028.2;;;-2.5;79.2
